Terminal Aerodrome Forecast
Issued by NWS Charleston, WV

Home | Current Version | Previous Version | Text Only | Print | Product List | Glossary On
Versions: 1 2 3 4 5 6 7 8 9 10 11 12 13 14 15 16 17 18 19 20 21 22 23 24 25 26 27 28 29 30 31 32 33 34 35 36 37
000
FTUS41 KRLX 181437 AAM
TAFCRW
TAF AMD
KCRW 181437Z 1815/1912 12004KT P6SM VCSH OVC045 WS020/19040KT
     FM181700 17009G16KT P6SM -RA OVC040
     FM181900 21012G20KT 3SM RA SCT009 OVC015
     FM182200 23012G22KT P6SM -SHRA OVC014
     FM190500 26014G25KT P6SM BKN020=

USA.gov is the U.S. government's official web portal to all federal, state and local government web resources and services.